Mountain Lake, Minnesota
Current Conditions -  °F | °C
As of 5:33 PM on Friday 19 Dec 2014 (Local Time) from KMWM Reporting Station
Overcast Overcast  
Wind Chill: 24°   Ceiling: 1400
Heat Index: 32°   Visibility: 10mi
Dew Point: 28°   Wind: 10mph
Humidity: 87%   Direction: 180°S
Pressure: 30.11"   Gusts: NA
Location:  43.94°N, 94.93°W
Report Text: KMWM 192333Z AUTO 18009KT 10SM OVC014 00/M02 A3011 RMK AO2
Loading
Personal Weather Stations






























Interactive Weather Map New forecast layout! Learn more

10-Day Weather Forecast

Advertisements
Track Severe Weather on mobile